Surface/Precipitation History
02/22/2018 09:36  to  2/23/2018 09:36
Change End Date:
Date/Time
(MST)
Sf
Temp Chem Water Layer Surface Precipitation
Sfc Pvt Sub Frz Factor Pct Dpth DpthThk IcePct Cond Salin FI Type Intens Accum Rate
02/23/2018 09:26 Ice Warning 16.0F - 18F 32F 5 1% - - 99% 1 mhos 269 - None None - -
02/23/2018 09:23 Ice Warning 15.6F - 18F 32F 15 1% - - 99% 1 mhos 254 - None None - -
02/23/2018 09:13 Ice Warning 13.3F - 18F 32F 95 0% - - 99% 0 mhos 132 - None None - -
02/23/2018 09:11 Ice Warning 12.9F - 18F 32F 95 0% - - 99% 0 mhos 120 - None None - -
02/23/2018 09:03 Ice Warning 10.9F - 18F 32F 5 0% - - 100% 0 mhos 87 - None None - -
02/23/2018 08:55 Ice Warning 9.1F - 18F 32F 5 0% - - 100% 0 mhos 71 - None None - -
02/23/2018 08:53 Ice Warning 9.0F - 18F 32F 5 0% - - 100% 0 mhos 68 - None None - -
02/23/2018 08:43 Ice Warning 10.0F - 18F 32F 5 0% - - 100% 0 mhos 69 - None None - -
02/23/2018 08:41 Ice Warning 9.7F - 19F 32F 5 0% - - 100% 0 mhos 71 - None None - -
02/23/2018 08:33 Ice Warning 8.4F - 19F 32F 5 0% - - 100% 0 mhos 77 - None None - -
02/23/2018 08:26 Ice Warning 7.5F - 19F 32F 5 0% - - 100% 0 mhos 81 - None None - -
02/23/2018 08:23 Ice Warning 7.3F - 19F 32F 5 0% - - 100% 0 mhos 83 - None None - -
02/23/2018 08:13 Ice Warning 6.3F - 19F 32F 5 0% - - 100% 0 mhos 84 - None None - -
02/23/2018 08:10 Ice Warning 5.9F - 19F 32F 5 0% - - 100% 0 mhos 88 - None None - -
02/23/2018 08:03 Ice Warning 5.5F - 19F 32F 5 0% - - 100% 0 mhos 92 - None None - -
Date/Time
(MST)
Sf
Temp Chem Water Layer Surface Precipitation
Sfc Pvt Sub Frz Factor Pct Dpth DpthThk IcePct Cond Salin FI Type Intens Accum Rate
02/23/2018 07:56 Ice Warning 4.6F - 19F 32F 5 0% - - 100% 0 mhos 94 - None None - -
02/23/2018 07:53 Ice Warning 4.6F - 19F 32F 5 0% - - 100% 0 mhos 95 - None None - -
02/23/2018 07:43 Ice Warning 4.3F - 19F 32F 5 0% - - 100% 0 mhos 96 - None None - -
02/23/2018 07:41 Ice Warning 3.9F - 19F 32F 5 0% - - 100% 0 mhos 96 - None None - -
02/23/2018 07:33 Ice Warning 3.7F - 19F 32F 5 0% - - 100% 0 mhos 95 - None None - -
02/23/2018 07:26 Ice Warning 3.0F - 19F 32F 5 0% - - 100% 0 mhos 94 - None None - -
02/23/2018 07:23 Ice Warning 3.0F - 19F 32F 5 0% - - 100% 0 mhos 94 - None None - -
02/23/2018 07:13 Ice Warning 2.7F - 19F 32F 5 0% - - 100% 0 mhos 96 - None None - -
02/23/2018 07:11 Ice Warning 2.8F - 19F 32F 5 0% - - 100% 0 mhos 96 - None None - -
02/23/2018 07:03 Ice Warning 2.7F - 19F 32F 5 0% - - 100% 0 mhos 97 - None None - -
02/23/2018 06:56 Ice Warning 2.8F - 19F 32F 5 0% - - 100% 0 mhos 97 - None None - -
02/23/2018 06:53 Ice Warning 2.8F - 19F 32F 5 0% - - 100% 0 mhos 100 - None None - -
02/23/2018 06:43 Ice Warning 3.0F - 19F 32F 5 0% - - 100% 0 mhos 100 - None None - -
02/23/2018 06:41 Ice Warning 3.4F - 19F 32F 5 0% - - 100% 0 mhos 98 - None None - -
02/23/2018 06:33 Ice Warning 3.6F - 19F 32F 5 0% - - 100% 0 mhos 101 - None None - -
Date/Time
(MST)
Sf
Temp Chem Water Layer Surface Precipitation
Sfc Pvt Sub Frz Factor Pct Dpth DpthThk IcePct Cond Salin FI Type Intens Accum Rate
02/23/2018 06:26 Ice Warning 3.7F - 19F 32F 5 0% - - 100% 0 mhos 101 - None None - -
02/23/2018 06:23 Ice Warning 3.7F - 19F 32F 5 0% - - 100% 0 mhos 101 - None None - -
02/23/2018 06:13 Ice Warning 3.4F - 19F 32F 5 0% - - 100% 0 mhos 102 - None None - -
02/23/2018 06:11 Ice Warning 3.2F - 19F 32F 5 0% - - 100% 0 mhos 104 - None None - -
02/23/2018 06:03 Ice Warning 3.6F - 19F 32F 5 0% - - 100% 0 mhos 104 - None None - -
02/23/2018 05:56 Ice Warning 3.7F - 19F 32F 5 0% - - 100% 0 mhos 105 - None None - -
02/23/2018 05:53 Ice Warning 3.9F - 19F 32F 5 0% - - 100% 0 mhos 106 - None None - -
02/23/2018 05:43 Ice Warning 3.7F - 19F 32F 5 0% - - 100% 0 mhos 108 - None None - -
02/23/2018 05:41 Ice Warning 3.7F - 19F 32F 5 0% - - 100% 0 mhos 108 - None None - -
02/23/2018 05:33 Ice Warning 3.7F - 19F 32F 5 0% - - 100% 0 mhos 109 - None None - -
02/23/2018 05:26 Ice Warning 4.1F - 19F 32F 5 0% - - 100% 0 mhos 108 - None None - -
02/23/2018 05:23 Ice Warning 4.3F - 19F 32F 5 0% - - 100% 0 mhos 107 - None None - -
02/23/2018 05:13 Ice Warning 4.3F - 20F 32F 5 0% - - 100% 0 mhos 109 - None None - -
02/23/2018 05:11 Ice Warning 4.3F - 20F 32F 5 0% - - 100% 0 mhos 110 - None None - -
02/23/2018 05:02 Ice Warning 4.5F - 20F 32F 5 0% - - 100% 0 mhos 108 - None None - -
Date/Time
(MST)
Sf
Temp Chem Water Layer Surface Precipitation
Sfc Pvt Sub Frz Factor Pct Dpth DpthThk IcePct Cond Salin FI Type Intens Accum Rate
02/23/2018 04:56 Ice Warning 4.6F - 20F 32F 5 0% - - 100% 0 mhos 114 - None None - -
02/23/2018 04:52 Ice Warning 4.8F - 20F 32F 5 0% - - 100% 0 mhos 113 - None None - -
02/23/2018 04:42 Ice Warning 5.4F - 20F 32F 5 0% - - 100% 0 mhos 112 - None None - -
02/23/2018 04:41 Ice Warning 5.4F - 20F 32F 5 0% - - 100% 0 mhos 113 - None None - -
02/23/2018 04:32 Ice Warning 5.5F - 20F 32F 5 0% - - 100% 0 mhos 112 - None None - -
02/23/2018 04:26 Ice Warning 6.1F - 20F 32F 5 0% - - 100% 0 mhos 111 - None None - -
02/23/2018 04:22 Ice Warning 6.3F - 20F 32F 5 0% - - 100% 0 mhos 111 - None None - -
02/23/2018 04:12 Ice Warning 6.6F - 20F 32F 5 0% - - 100% 0 mhos 111 - None None - -
02/23/2018 04:11 Ice Warning 6.8F - 20F 32F 5 0% - - 100% 0 mhos 110 - None None - -
02/23/2018 04:02 Ice Warning 7.3F - 20F 32F 5 0% - - 100% 0 mhos 109 - None None - -
02/23/2018 03:56 Ice Warning 7.5F - 20F 32F 5 0% - - 100% 0 mhos 109 - None None - -
02/23/2018 03:52 Ice Warning 7.7F - 20F 32F 5 0% - - 100% 0 mhos 107 - None None - -
02/23/2018 03:42 Ice Warning 8.1F - 20F 32F 5 0% - - 100% 0 mhos 103 - None None - -
02/23/2018 03:40 Ice Warning 7.9F - 20F 32F 5 0% - - 100% 0 mhos 105 - None None - -
02/23/2018 03:32 Ice Warning 7.9F - 20F 32F 5 0% - - 100% 0 mhos 103 - None None - -
Date/Time
(MST)
Sf
Temp Chem Water Layer Surface Precipitation
Sfc Pvt Sub Frz Factor Pct Dpth DpthThk IcePct Cond Salin FI Type Intens Accum Rate
02/23/2018 03:26 Ice Warning 7.9F - 20F 32F 5 0% - - 100% 0 mhos 102 - None None - -
02/23/2018 03:22 Ice Warning 7.9F - 20F 32F 5 0% - - 100% 0 mhos 100 - Yes - - -
02/23/2018 03:12 Ice Watch 7.7F - 20F - 5 - - - - 0 mhos 97 - None None - -
02/23/2018 03:11 Ice Watch 7.7F - 20F - 5 - - - - 0 mhos 97 - None None - -
02/23/2018 03:02 Ice Watch 7.5F - 20F - 5 - - - - 0 mhos 96 - None None - -
02/23/2018 02:56 Ice Watch 7.5F - 20F - 5 - - - - 0 mhos 95 - None None - -
02/23/2018 02:52 Ice Watch 7.5F - 20F - 5 - - - - 0 mhos 93 - None None - -
02/23/2018 02:42 Ice Watch 7.3F - 20F - 5 - - - - 0 mhos 95 - None None - -
02/23/2018 02:41 Ice Watch 7.3F - 20F - 5 - - - - 0 mhos 94 - None None - -
02/23/2018 02:32 Ice Watch 7.0F - 20F - 5 - - - - 0 mhos 95 - None None - -
02/23/2018 02:26 Ice Watch 6.8F - 20F - 5 - - - - 0 mhos 95 - None None - -
02/23/2018 02:22 Ice Watch 6.4F - 20F - 5 - - - - 0 mhos 97 - None None - -
02/23/2018 02:12 Ice Watch 6.1F - 21F - 5 - - - - 0 mhos 93 - None None - -
02/23/2018 02:11 Ice Watch 6.3F - 21F - 5 - - - - 0 mhos 93 - None None - -
02/23/2018 02:02 Ice Watch 5.9F - 21F - 5 - - - - 0 mhos 94 - None None - -
Date/Time
(MST)
Sf
Temp Chem Water Layer Surface Precipitation
Sfc Pvt Sub Frz Factor Pct Dpth DpthThk IcePct Cond Salin FI Type Intens Accum Rate
02/23/2018 01:56 Ice Watch 5.9F - 21F - 5 - - - - 0 mhos 95 - None None - -
02/23/2018 01:52 Ice Watch 5.9F - 21F - 5 - - - - 0 mhos 94 - None None - -
02/23/2018 01:42 Ice Watch 5.9F - 21F - 5 - - - - 0 mhos 95 - None None - -
02/23/2018 01:41 Ice Watch 5.9F - 21F - 5 - - - - 0 mhos 96 - None None - -
02/23/2018 01:32 Ice Watch 5.7F - 21F - 5 - - - - 0 mhos 97 - None None - -
02/23/2018 01:26 Ice Watch 5.5F - 21F - 5 - - - - 0 mhos 99 - None None - -
02/23/2018 01:22 Ice Watch 5.5F - 21F - 5 - - - - 0 mhos 104 - None None - -
02/23/2018 01:12 Ice Watch 5.9F - 21F - 5 - - - - 0 mhos 104 - None None - -
02/23/2018 01:11 Ice Watch 5.9F - 21F - 5 - - - - 0 mhos 104 - None None - -
02/23/2018 01:02 Ice Watch 5.7F - 21F - 5 - - - - 0 mhos 107 - None None - -
02/23/2018 00:56 Ice Watch 5.5F - 21F - 5 - - - - 0 mhos 109 - None None - -
02/23/2018 00:52 Ice Watch 5.5F - 21F - 5 - - - - 0 mhos 108 - None None - -
02/23/2018 00:42 Ice Watch 5.5F - 21F - 5 - - - - 0 mhos 110 - None None - -
02/23/2018 00:41 Ice Watch 5.5F - 21F - 5 - - - - 0 mhos 110 - None None - -
02/23/2018 00:32 Ice Watch 5.4F - 22F - 5 - - - - 0 mhos 113 - None None - -
Date/Time
(MST)
Sf
Temp Chem Water Layer Surface Precipitation
Sfc Pvt Sub Frz Factor Pct Dpth DpthThk IcePct Cond Salin FI Type Intens Accum Rate
02/23/2018 00:26 Ice Watch 5.4F - 22F - 5 - - - - 0 mhos 113 - None None - -
02/23/2018 00:22 Ice Watch 5.2F - 22F - 5 - - - - 0 mhos 115 - None None - -
02/23/2018 00:12 Ice Watch 4.8F - 22F - 5 - - - - 0 mhos 118 - None None - -
02/23/2018 00:12 Ice Watch 4.8F - 22F - 5 - - - - 0 mhos 119 - None None - -
02/23/2018 00:01 Ice Watch 4.8F - 22F - 5 - - - - 0 mhos 120 - None None - -
02/22/2018 23:56 Ice Watch 4.8F - 22F - 5 - - - - 0 mhos 120 - None None - -
02/22/2018 23:51 Ice Watch 4.8F - 22F - 5 - - - - 0 mhos 122 - None None - -
02/22/2018 23:41 Ice Watch 5.0F - 22F - 5 - - - - 0 mhos 123 - None None - -
02/22/2018 23:41 Ice Watch 5.0F - 22F - 5 - - - - 0 mhos 123 - None None - -
02/22/2018 23:31 Ice Watch 5.4F - 22F - 5 - - - - 0 mhos 123 - None None - -
02/22/2018 23:26 Ice Watch 5.2F - 22F - 5 - - - - 0 mhos 126 - None None - -
02/22/2018 23:21 Ice Watch 5.5F - 22F - 5 - - - - 0 mhos 125 - None None - -
02/22/2018 23:11 Ice Watch 5.5F - 22F - 5 - - - - 0 mhos 129 - None None - -
02/22/2018 23:11 Ice Watch 5.5F - 22F - 5 - - - - 0 mhos 129 - None None - -
02/22/2018 23:01 Ice Watch 5.9F - 22F - 5 - - - - 0 mhos 127 - None None - -
Date/Time
(MST)
Sf
Temp Chem Water Layer Surface Precipitation
Sfc Pvt Sub Frz Factor Pct Dpth DpthThk IcePct Cond Salin FI Type Intens Accum Rate
02/22/2018 22:56 Ice Watch 6.1F - 22F - 5 - - - - 0 mhos 127 - None None - -
02/22/2018 22:51 Ice Watch 6.1F - 22F - 5 - - - - 0 mhos 129 - None None - -
02/22/2018 22:41 Ice Watch 6.4F - 22F - 5 - - - - 0 mhos 129 - None None - -
02/22/2018 22:41 Ice Watch 6.4F - 22F - 5 - - - - 0 mhos 129 - None None - -
02/22/2018 22:31 Ice Watch 6.4F - 22F - 5 - - - - 0 mhos 133 - None None - -
02/22/2018 22:26 Ice Watch 6.6F - 22F - 5 - - - - 0 mhos 134 - None None - -
02/22/2018 22:21 Ice Watch 6.6F - 22F - 5 - - - - 0 mhos 136 - None None - -
02/22/2018 22:11 Ice Watch 7.2F - 22F - 5 - - - - 0 mhos 137 - None None - -
02/22/2018 22:11 Ice Watch 7.2F - 22F - 5 - - - - 0 mhos 137 - None None - -
02/22/2018 22:01 Ice Watch 7.3F - 22F - 5 - - - - 0 mhos 141 - None None - -
02/22/2018 21:56 Ice Watch 7.5F - 22F - 5 - - - - 0 mhos 142 - None None - -
02/22/2018 21:51 Ice Watch 7.7F - 22F - 5 - - - - 0 mhos 141 - None None - -
02/22/2018 21:41 Ice Watch 8.1F - 22F - 5 - - - - 0 mhos 145 - None None - -
02/22/2018 21:41 Ice Watch 8.1F - 22F - 5 - - - - 0 mhos 145 - None None - -
02/22/2018 21:31 Ice Watch 8.4F - 22F - 5 - - - - 0 mhos 145 - None None - -
Date/Time
(MST)
Sf
Temp Chem Water Layer Surface Precipitation
Sfc Pvt Sub Frz Factor Pct Dpth DpthThk IcePct Cond Salin FI Type Intens Accum Rate
02/22/2018 21:26 Ice Watch 8.6F - 22F - 5 - - - - 0 mhos 148 - None None - -
02/22/2018 21:21 Ice Watch 8.6F - 22F - 5 - - - - 0 mhos 149 - None None - -
02/22/2018 21:11 Ice Watch 9.3F - 22F - 5 - - - - 0 mhos 149 - None None - -
02/22/2018 21:11 Ice Watch 9.3F - 22F - 5 - - - - 0 mhos 149 - None None - -
02/22/2018 21:01 Ice Watch 9.3F - 22F - 5 - - - - 0 mhos 155 - None None - -
02/22/2018 20:56 Ice Watch 9.3F - 22F - 5 - - - - 0 mhos 156 - None None - -
02/22/2018 20:51 Ice Watch 9.7F - 22F - 5 - - - - 0 mhos 154 - None None - -
02/22/2018 20:41 Ice Watch 9.7F - 22F - 5 - - - - 0 mhos 158 - None None - -
02/22/2018 20:41 Ice Watch 9.7F - 22F - 5 - - - - 0 mhos 158 - None None - -
02/22/2018 20:31 Ice Watch 9.7F - 22F - 5 - - - - 0 mhos 163 - None None - -
02/22/2018 20:26 Ice Watch 9.7F - 22F - 5 - - - - 0 mhos 165 - None None - -
02/22/2018 20:21 Ice Watch 9.7F - 22F - 5 - - - - 0 mhos 169 - None None - -
02/22/2018 20:11 Ice Watch 10.0F - 22F - 5 - - - - 0 mhos 173 - None None - -
02/22/2018 20:11 Ice Watch 10.2F - 22F - 5 - - - - 0 mhos 170 - None None - -
02/22/2018 20:01 Ice Watch 10.4F - 22F - 5 - - - - 0 mhos 175 - None None - -
Date/Time
(MST)
Sf
Temp Chem Water Layer Surface Precipitation
Sfc Pvt Sub Frz Factor Pct Dpth DpthThk IcePct Cond Salin FI Type Intens Accum Rate
02/22/2018 19:56 Ice Watch 10.4F - 22F - 5 - - - - 0 mhos 178 - None None - -
02/22/2018 19:51 Ice Watch 10.2F - 22F - 5 - - - - 0 mhos 184 - None None - -
02/22/2018 19:41 Ice Watch 10.6F - 22F - 5 - - - - 0 mhos 190 - None None - -
02/22/2018 19:41 Ice Watch 10.8F - 22F - 5 - - - - 0 mhos 189 - None None - -
02/22/2018 19:31 Ice Watch 11.1F - 22F - 5 - - - - 0 mhos 197 - None None - -
02/22/2018 19:26 Ice Watch 11.3F - 22F - 5 - - - - 0 mhos 200 - None None - -
02/22/2018 19:20 Ice Watch 11.3F - 22F - 5 - - - - 0 mhos 210 - None None - -
02/22/2018 19:12 Ice Watch 11.7F - 22F - 5 - - - - 0 mhos 220 - None None - -
02/22/2018 19:10 Ice Watch 12.0F - 22F - 5 - - - - 0 mhos 217 - None None - -
02/22/2018 19:00 Ice Watch 12.4F - 22F - 5 - - - - 0 mhos 232 - None None - -
02/22/2018 18:56 Ice Watch 12.7F - 22F - 5 - - - - 0 mhos 231 - None None - -
02/22/2018 18:50 Ice Watch 12.9F - 22F - 5 - - - - 0 mhos 237 - None None - -
02/22/2018 18:41 Ice Watch 13.3F - 22F - 5 - - - - 1 mhos 241 - None None - -
02/22/2018 18:40 Ice Watch 13.3F - 22F - 5 - - - - 1 mhos 240 - None None - -
02/22/2018 18:30 Ice Watch 14.2F - 22F - 5 - - - - 1 mhos 234 - None None - -
Date/Time
(MST)
Sf
Temp Chem Water Layer Surface Precipitation
Sfc Pvt Sub Frz Factor Pct Dpth DpthThk IcePct Cond Salin FI Type Intens Accum Rate
02/22/2018 18:26 Ice Watch 14.5F - 22F - 5 - - - - 1 mhos 231 - None None - -
02/22/2018 18:20 Ice Watch 14.9F - 22F - 5 - - - - 1 mhos 229 - None None - -
02/22/2018 18:11 Ice Watch 15.4F - 22F - 5 - - - - 1 mhos 212 - None None - -
02/22/2018 18:10 Ice Watch 15.4F - 22F - 5 - - - - 1 mhos 208 - None None - -
02/22/2018 18:00 Ice Watch 16.2F - 22F - 5 - - - - 0 mhos 180 - None None - -
02/22/2018 17:56 Ice Watch 16.7F - 22F - 5 - - - - 0 mhos 165 - None None - -
02/22/2018 17:50 Ice Watch 17.4F - 22F - 5 - - - - 0 mhos 149 - None None - -
02/22/2018 17:41 Ice Watch 18.3F - 22F - 5 - - - - 0 mhos 133 - None None - -
02/22/2018 17:40 Ice Watch 18.5F - 22F - 5 - - - - 0 mhos 131 - None None - -
02/22/2018 17:30 Ice Watch 19.8F - 22F - 5 - - - - 0 mhos 116 - None None - -
02/22/2018 17:26 Ice Watch 20.3F - 22F - 5 - - - - 0 mhos 111 - None None - -
02/22/2018 17:20 Ice Watch 21.0F - 22F - 5 - - - - 0 mhos 93 - None None - -
02/22/2018 17:11 Ice Watch 22.5F - 22F - 5 - - - - 0 mhos 55 - None None - -
02/22/2018 17:10 Ice Watch 22.6F - 21F - 5 - - - - 0 mhos 52 - None None - -
02/22/2018 17:00 Dry 24.1F - 21F - - - - - - 0 mhos 44 - None None - -
Date/Time
(MST)
Sf
Temp Chem Water Layer Surface Precipitation
Sfc Pvt Sub Frz Factor Pct Dpth DpthThk IcePct Cond Salin FI Type Intens Accum Rate
02/22/2018 16:56 Dry 25.2F - 21F - - - - - - 0 mhos 43 - None None - -
02/22/2018 16:50 Dry 25.0F - 21F - - - - - - 0 mhos 42 - None None - -
02/22/2018 16:41 Dry 25.9F - 21F - - - - - - 0 mhos 48 - None None - -
02/22/2018 16:40 Dry 25.9F - 21F - - - - - - 0 mhos 48 - None None - -
02/22/2018 16:30 Dry 27.0F - 21F - - - - - - 0 mhos 57 - None None - -
02/22/2018 16:26 Ice Watch 27.5F - 21F - 5 - - - - 0 mhos 62 - None None - -
02/22/2018 16:20 Dry 27.5F - 21F - - - - - - 0 mhos 70 - None None - -
02/22/2018 16:11 Dry 27.7F - 21F - - - - - - 1 mhos 85 - None None - -
02/22/2018 16:10 Dry 27.7F - 21F - - - - - - 1 mhos 85 - None None - -
02/22/2018 16:00 Ice Watch 28.0F - 21F - 5 - - - - 1 mhos 94 - None None - -
02/22/2018 15:56 Dry 28.6F - 20F - - - - - - 1 mhos 97 - None None - -
02/22/2018 15:50 Ice Watch 28.8F - 20F - 5 - - - - 1 mhos 94 - None None - -
02/22/2018 15:41 Dry 29.5F - 20F - - - - - - 1 mhos 89 - None None - -
02/22/2018 15:40 Dry 29.5F - 20F - - - - - - 1 mhos 90 - None None - -
02/22/2018 15:30 Dry 30.9F - 20F - - - - - - 1 mhos 90 - None None - -
Date/Time
(MST)
Sf
Temp Chem Water Layer Surface Precipitation
Sfc Pvt Sub Frz Factor Pct Dpth DpthThk IcePct Cond Salin FI Type Intens Accum Rate
02/22/2018 15:26 Ice Watch 31.5F - 20F - 5 - - - - 1 mhos 86 - None None - -
02/22/2018 15:20 Dry 32.4F - 20F - - - - - - 1 mhos 78 - None None - -
02/22/2018 15:11 Trace Moisture 32.9F - 20F - 5 - - - - 1 mhos 82 - None None - -
02/22/2018 15:10 Trace Moisture 32.9F - 20F - 5 - - - - 1 mhos 83 - None None - -
02/22/2018 15:00 Wet 32.5F - 20F 32F 5 0% 0.00 in - 0% 1 mhos 93 - None None - -
02/22/2018 14:56 Wet 32.4F - 20F 32F 5 0% 0.00 in - 0% 1 mhos 90 - None None - -
02/22/2018 14:50 Wet 32.4F - 20F 32F 5 0% 0.00 in - 0% 1 mhos 83 - None None - -
02/22/2018 14:41 Wet 32.9F - 20F 32F 5 0% 0.00 in - 0% 1 mhos 77 - None None - -
02/22/2018 14:40 Wet 32.7F - 20F 32F 5 0% 0.00 in - 0% 1 mhos 77 - None None - -
02/22/2018 14:30 Trace Moisture 33.8F - 20F - 5 - - - - 1 mhos 58 - None None - -
02/22/2018 14:26 Trace Moisture 34.2F - 20F - 5 - - - - 1 mhos 60 - None None - -
02/22/2018 14:20 Dry 34.9F - 20F - - - - - - 0 mhos 6 - None None - -
02/22/2018 14:11 Dry 35.4F - 19F - - - - - - 0 mhos 3 - None None - -
02/22/2018 14:10 Dry 35.4F - 19F - - - - - - 0 mhos 3 - None None - -
02/22/2018 14:00 Dry 35.8F - 19F - - - - - - 0 mhos 5 - None None - -
Date/Time
(MST)
Sf
Temp Chem Water Layer Surface Precipitation
Sfc Pvt Sub Frz Factor Pct Dpth DpthThk IcePct Cond Salin FI Type Intens Accum Rate
02/22/2018 13:56 Dry 35.8F - 19F - - - - - - 0 mhos 7 - None None - -
02/22/2018 13:49 Dry 35.8F - 19F - - - - - - 0 mhos 14 - None None - -
02/22/2018 13:41 Dry 36.7F - 19F - - - - - - 0 mhos 39 - None None - -
02/22/2018 13:39 Dry 36.5F - 19F - - - - - - 0 mhos 46 - None None - -
02/22/2018 13:29 Dry 37.0F - 19F - - - - - - 0 mhos 0 - None None - -
02/22/2018 13:26 Dry 37.4F - 19F - - - - - - 0 mhos 0 - None None - -
02/22/2018 13:19 Dry 37.8F - 19F - - - - - - 0 mhos 0 - None None - -
02/22/2018 13:11 Dry 38.5F - 19F - - - - - - 0 mhos 0 - None None - -
02/22/2018 13:09 Dry 38.7F - 19F - - - - - - 0 mhos 0 - None None - -
02/22/2018 12:59 Dry 38.7F - 19F - - - - - - 0 mhos 0 - None None - -
02/22/2018 12:56 Dry 38.7F - 19F - - - - - - 0 mhos 0 - None None - -
02/22/2018 12:49 Dry 38.1F - 19F - - - - - - 0 mhos 0 - None None - -
02/22/2018 12:41 Dry 37.9F - 19F - - - - - - 0 mhos 0 - None None - -
02/22/2018 12:39 Dry 37.9F - 19F - - - - - - 0 mhos 0 - None None - -
02/22/2018 12:29 Dry 37.6F - 19F - - - - - - 0 mhos 0 - None None - -
Date/Time
(MST)
Sf
Temp Chem Water Layer Surface Precipitation
Sfc Pvt Sub Frz Factor Pct Dpth DpthThk IcePct Cond Salin FI Type Intens Accum Rate
02/22/2018 12:26 Dry 37.9F - 19F - - - - - - 0 mhos 0 - None None - -
02/22/2018 12:19 Dry 38.7F - 18F - - - - - - 0 mhos 0 - None None - -
02/22/2018 12:11 Dry 39.9F - 18F - - - - - - 0 mhos 0 - None None - -
02/22/2018 12:09 Dry 39.6F - 18F - - - - - - 0 mhos 0 - None None - -
02/22/2018 11:59 Dry 36.9F - 18F - - - - - - 0 mhos 0 - None None - -
02/22/2018 11:56 Dry 36.0F - 18F - - - - - - 0 mhos 0 - None None - -
02/22/2018 11:49 Dry 36.1F - 18F - - - - - - 0 mhos 0 - None None - -
02/22/2018 11:41 Dry 35.8F - 18F - - - - - - 0 mhos 0 - None None - -
02/22/2018 11:39 Dry 36.1F - 18F - - - - - - 0 mhos 0 - None None - -
02/22/2018 11:29 Dry 36.0F - 18F - - - - - - 0 mhos 0 - None None - -
02/22/2018 11:26 Dry 35.4F - 18F - - - - - - 0 mhos 0 - None None - -
02/22/2018 11:19 Dry 33.8F - 18F - - - - - - 0 mhos 0 - None None - -
02/22/2018 11:11 Dry 33.4F - 18F - - - - - - 0 mhos 0 - None None - -
02/22/2018 11:09 Dry 33.3F - 18F - - - - - - 0 mhos 0 - None None - -
02/22/2018 10:59 Dry 32.0F - 18F - - - - - - 0 mhos 0 - None None - -
Date/Time
(MST)
Sf
Temp Chem Water Layer Surface Precipitation
Sfc Pvt Sub Frz Factor Pct Dpth DpthThk IcePct Cond Salin FI Type Intens Accum Rate
02/22/2018 10:56 Dry 31.5F - 18F - - - - - - 0 mhos 0 - None None - -
02/22/2018 10:49 Dry 32.0F - 18F - - - - - - 0 mhos 0 - None None - -
02/22/2018 10:41 Dry 30.7F - 18F - - - - - - 0 mhos 0 - None None - -
02/22/2018 10:39 Dry 30.9F - 18F - - - - - - 0 mhos 0 - None None - -
02/22/2018 10:29 Dry 29.1F - 18F - - - - - - 0 mhos 0 - None None - -
02/22/2018 10:26 Dry 28.8F - 18F - - - - - - 0 mhos 0 - None None - -
02/22/2018 10:19 Dry 29.1F - 18F - - - - - - 0 mhos 0 - None None - -
02/22/2018 10:11 Dry 29.1F - 18F - - - - - - 0 mhos 0 - None None - -
02/22/2018 10:09 Dry 29.1F - 18F - - - - - - 0 mhos 0 - None None - -
02/22/2018 09:59 Dry 25.7F - 18F - - - - - - 0 mhos 0 - None None - -
02/22/2018 09:56 Dry 25.5F - 18F - - - - - - 0 mhos 0 - None None - -
02/22/2018 09:49 Dry 23.9F - 18F - - - - - - 0 mhos 0 - None None - -
02/22/2018 09:41 Dry 21.6F - 18F - - - - - - 0 mhos 0 - None None - -
02/22/2018 09:39 Dry 21.0F - 18F - - - - - - 0 mhos 0 - None None - -
Change End Date:

Copyright © 1998-2015 Vaisala, Inc.
All Rights Reserved
Send comments about the data to:
SCAN Web ® is a registered trademark of Vaisala, Inc.
SCAN Web Version 6.0